Time;durP1;ratioP1;P1;durP2;ratioP2;P2;SDS_P1;SDS_P2;PMS_P1;PMS_P2;Temp;Humidity;BMP_temperature;BMP_pressure;BME280_temperature;BME280_humidity;BME280_pressure;Samples;Min_cycle;Max_cycle;Signal;HPM_P1;HPM_P2
2022/08/03 00:00:56;;;;;;;9.30;7.40;;;;;;;14.97;79.10;99749.48;442041;1274;142231;-66
2022/08/03 00:11:03;;;;;;;7.30;6.40;;;;;;;14.91;79.18;99752.11;439536;1274;148297;-65
2022/08/03 00:21:09;;;;;;;9.90;6.90;;;;;;;14.84;79.34;99749.06;441751;1274;145451;-64
2022/08/03 00:31:15;;;;;;;15.00;10.60;;;;;;;14.83;80.13;99746.74;434441;1274;142752;-65
2022/08/03 00:41:20;;;;;;;10.80;9.20;;;;;;;14.82;80.90;99742.59;446347;1274;144201;-66
2022/08/03 00:51:26;;;;;;;10.20;9.00;;;;;;;14.73;80.93;99740.41;435000;1274;147797;-66
2022/08/03 01:01:32;;;;;;;8.80;7.80;;;;;;;14.61;80.63;99735.70;445273;1274;142969;-65
2022/08/03 01:11:42;;;;;;;19.50;8.10;;;;;;;14.52;80.91;99733.03;440040;1274;142158;-65
2022/08/03 01:22:17;;;;;;;9.20;8.00;;;;;;;14.40;80.82;99738.36;447104;1274;143239;-65
2022/08/03 01:32:36;;;;;;;9.70;8.80;;;;;;;14.35;81.33;99740.20;444346;1274;143033;-65
2022/08/03 01:43:04;;;;;;;10.30;9.30;;;;;;;14.28;81.36;99744.23;446908;1274;142974;-65
2022/08/03 01:53:13;;;;;;;9.00;8.10;;;;;;;14.21;81.53;99747.92;446100;1274;144305;-65
2022/08/03 02:03:21;;;;;;;10.30;7.90;;;;;;;14.15;81.28;99736.77;441411;1274;143446;-64
2022/08/03 02:13:29;;;;;;;9.60;8.20;;;;;;;14.10;81.28;99736.96;433519;1274;200334;-66
2022/08/03 02:23:34;;;;;;;13.50;8.60;;;;;;;14.08;81.52;99732.91;432183;1274;142329;-65
2022/08/03 02:33:46;;;;;;;19.20;9.40;;;;;;;14.02;81.37;99730.20;446346;1274;143098;-65
2022/08/03 02:43:56;;;;;;;9.90;8.60;;;;;;;13.97;81.63;99736.88;446124;1274;143099;-66
2022/08/03 02:54:15;;;;;;;19.70;10.40;;;;;;;13.96;81.63;99740.52;447165;1274;142777;-66
2022/08/03 03:04:21;;;;;;;24.70;10.70;;;;;;;14.00;81.82;99745.30;447151;1274;145700;-66
2022/08/03 03:14:33;;;;;;;17.60;13.60;;;;;;;13.99;81.55;99747.15;446121;1274;143169;-67
2022/08/03 03:24:41;;;;;;;21.40;13.70;;;;;;;14.03;81.72;99747.90;447183;1274;153169;-67
2022/08/03 03:34:47;;;;;;;20.80;14.30;;;;;;;14.11;81.46;99741.81;443662;1273;146590;-64
2022/08/03 03:44:53;;;;;;;15.90;12.60;;;;;;;14.31;81.70;99741.34;439093;1274;142811;-64
2022/08/03 03:54:59;;;;;;;21.20;14.30;;;;;;;14.59;81.37;99749.46;430958;1273;143491;-65
2022/08/03 04:15:33;;;;;;;13.70;12.30;;;;;;;15.91;80.90;99761.80;430663;1274;144047;-64
2022/08/03 04:25:42;;;;;;;15.10;12.00;;;;;;;16.79;79.65;99766.20;430269;1274;184247;-65
2022/08/03 04:35:50;;;;;;;21.80;10.60;;;;;;;18.75;79.55;99773.23;430031;1274;143322;-66
2022/08/03 04:46:08;;;;;;;12.10;10.00;;;;;;;21.85;72.62;99779.56;432089;1274;141820;-65
2022/08/03 04:56:14;;;;;;;13.70;9.70;;;;;;;20.84;71.68;99785.78;428995;1274;143740;-66
2022/08/03 05:06:19;;;;;;;12.30;9.20;;;;;;;21.50;71.62;99787.61;430458;1273;142743;-64
2022/08/03 05:16:29;;;;;;;11.60;9.70;;;;;;;25.29;67.09;99786.54;431574;1274;140832;-63
2022/08/03 05:26:36;;;;;;;13.60;8.80;;;;;;;25.46;63.97;99796.69;429374;1274;142970;-65
2022/08/03 05:36:42;;;;;;;19.00;9.70;;;;;;;27.38;60.21;99798.46;431748;1274;142925;-63
2022/08/03 05:46:48;;;;;;;14.20;8.30;;;;;;;26.12;59.92;99804.41;439300;1274;143815;-64
2022/08/03 05:56:54;;;;;;;12.30;8.40;;;;;;;27.40;57.70;99802.16;446903;1274;142871;-64
2022/08/03 06:06:59;;;;;;;7.70;7.00;;;;;;;27.91;56.94;99805.96;447064;1273;144168;-65
2022/08/03 06:17:05;;;;;;;7.60;5.90;;;;;;;33.16;50.91;99802.38;441998;1272;142071;-62
2022/08/03 06:27:11;;;;;;;6.00;5.30;;;;;;;31.70;48.60;99810.42;430582;1274;142573;-63
2022/08/03 06:37:16;;;;;;;;;;;;;;;31.51;48.09;99808.08;431120;1274;147595;-64
2022/08/03 06:47:21;;;;;;;5.60;5.10;;;;;;;32.71;46.53;99808.09;430308;1274;128541;-63
2022/08/03 06:57:27;;;;;;;4.20;3.60;;;;;;;38.19;41.78;99811.84;432089;1274;141843;-64
2022/08/03 07:07:33;;;;;;;5.10;2.60;;;;;;;41.97;36.67;99814.96;432337;1274;142641;-63
2022/08/03 07:17:39;;;;;;;3.50;2.30;;;;;;;41.57;33.35;99818.73;430497;1274;141852;-63
2022/08/03 07:27:47;;;;;;;57.60;8.60;;;;;;;43.27;31.21;99825.00;431363;1274;146604;-64
2022/08/03 07:37:56;;;;;;;6.30;1.70;;;;;;;45.11;28.49;99814.77;431308;1274;141178;-64
2022/08/03 07:48:02;;;;;;;3.50;2.00;;;;;;;46.25;26.50;99810.61;432289;1274;141769;-63
2022/08/03 07:58:16;;;;;;;3.90;2.10;;;;;;;46.10;24.91;99807.38;430481;1274;141259;-64
2022/08/03 08:08:28;;;;;;;5.30;1.80;;;;;;;43.51;25.12;99806.77;431405;1274;145358;-63
2022/08/03 08:18:34;;;;;;;1.30;1.20;;;;;;;45.36;24.09;99811.92;431370;1274;145274;-63
2022/08/03 08:28:40;;;;;;;2.10;1.90;;;;;;;41.83;24.72;99807.02;429441;1274;141990;-64
2022/08/03 08:38:46;;;;;;;1.70;1.60;;;;;;;38.37;26.77;99802.59;430193;1273;141531;-63
2022/08/03 08:48:53;;;;;;;2.30;2.10;;;;;;;36.58;28.74;99805.13;431508;1274;145875;-63
2022/08/03 08:59:01;;;;;;;2.40;2.10;;;;;;;36.29;29.26;99807.86;430776;1274;141755;-64
2022/08/03 09:09:08;;;;;;;2.50;2.30;;;;;;;35.89;29.64;99810.92;432066;1274;141995;-63
2022/08/03 09:19:36;;;;;;;3.10;2.70;;;;;;;35.69;30.41;99806.30;432024;1273;142385;-63
2022/08/03 09:29:42;;;;;;;3.30;3.00;;;;;;;35.19;30.28;99801.27;432919;1274;142539;-63
2022/08/03 09:39:48;;;;;;;7.10;3.60;;;;;;;33.89;31.32;99792.45;431648;1274;141407;-64
2022/08/03 09:50:00;;;;;;;2.90;2.70;;;;;;;33.58;31.82;99786.64;431591;1274;142213;-64
2022/08/03 10:00:12;;;;;;;4.00;3.20;;;;;;;33.52;32.38;99775.92;432570;1274;141655;-62
2022/08/03 10:10:19;;;;;;;3.50;3.20;;;;;;;32.89;32.94;99776.73;431803;1274;142967;-63
2022/08/03 10:20:41;;;;;;;3.10;2.90;;;;;;;32.31;33.56;99778.79;430125;1274;142305;-64
2022/08/03 10:30:50;;;;;;;3.50;3.20;;;;;;;31.54;34.33;99779.98;431543;1274;141439;-64
2022/08/03 10:40:57;;;;;;;4.60;3.50;;;;;;;30.96;35.40;99774.98;430354;1274;142305;-65
2022/08/03 10:51:06;;;;;;;3.60;3.00;;;;;;;30.26;36.14;99778.04;432274;1274;141837;-64
2022/08/03 11:01:13;;;;;;;2.90;2.50;;;;;;;30.30;36.91;99776.02;430549;1274;141166;-63
2022/08/03 11:11:28;;;;;;;4.30;2.80;;;;;;;30.54;36.89;99773.27;431248;1273;141886;-63
2022/08/03 11:22:03;;;;;;;4.10;3.20;;;;;;;30.74;36.38;99758.38;432132;1274;142678;-65
2022/08/03 11:32:09;;;;;;;3.50;3.20;;;;;;;30.86;36.52;99749.35;429651;1274;331747;-62
2022/08/03 11:42:46;;;;;;;4.50;3.40;;;;;;;30.89;36.42;99742.94;429737;1276;142471;-66
2022/08/03 11:52:51;;;;;;;3.70;3.50;;;;;;;31.47;35.72;99737.86;431294;1274;141810;-64
2022/08/03 12:03:03;;;;;;;3.50;3.20;;;;;;;31.09;35.32;99728.42;430444;1274;140733;-64
2022/08/03 12:13:09;;;;;;;3.60;3.30;;;;;;;31.02;35.39;99732.23;431922;1276;141828;-65
2022/08/03 12:23:35;;;;;;;4.90;4.00;;;;;;;30.94;35.65;99726.10;431982;1274;141821;-63
2022/08/03 12:34:01;;;;;;;4.60;4.30;;;;;;;30.96;35.50;99716.38;431732;1274;141000;-65
2022/08/03 12:44:09;;;;;;;4.80;3.60;;;;;;;30.32;35.50;99710.20;432122;1274;141637;-65
2022/08/03 12:54:19;;;;;;;3.50;3.30;;;;;;;29.88;36.19;99700.77;432256;1274;140910;-66
2022/08/03 13:04:31;;;;;;;5.40;4.10;;;;;;;29.68;36.36;99695.60;434188;1276;142023;-66
2022/08/03 13:14:38;;;;;;;4.20;3.90;;;;;;;29.83;36.92;99690.70;431597;1274;142718;-65
2022/08/03 13:24:45;;;;;;;5.80;4.40;;;;;;;29.67;36.40;99691.73;432018;1274;141173;-65
2022/08/03 13:34:51;;;;;;;4.40;4.10;;;;;;;29.39;36.97;99688.30;431089;1273;141779;-63
2022/08/03 13:44:57;;;;;;;4.90;4.00;;;;;;;29.17;36.83;99678.36;434624;1273;141227;-64
2022/08/03 13:55:04;;;;;;;4.20;3.90;;;;;;;28.97;36.84;99668.58;435470;1274;145230;-64
2022/08/03 14:05:11;;;;;;;5.10;4.60;;;;;;;28.98;36.96;99667.67;430706;1274;142421;-65
2022/08/03 14:15:17;;;;;;;4.70;4.40;;;;;;;29.08;37.65;99664.27;433136;1273;183389;-63
2022/08/03 14:25:22;;;;;;;6.20;4.20;;;;;;;29.33;37.59;99661.77;431162;1275;140949;-63
2022/08/03 14:35:28;;;;;;;5.90;4.80;;;;;;;29.56;37.00;99655.97;429762;1274;141471;-62
2022/08/03 14:45:34;;;;;;;4.70;4.30;;;;;;;29.71;37.05;99649.66;430954;1274;141787;-63
2022/08/03 14:55:40;;;;;;;4.50;4.20;;;;;;;29.61;36.40;99643.81;431007;1274;140613;-65
2022/08/03 15:05:56;;;;;;;4.30;3.70;;;;;;;29.51;36.30;99638.17;430719;1274;142901;-64
2022/08/03 15:16:02;;;;;;;4.00;3.80;;;;;;;29.27;36.21;99633.66;431539;1274;184513;-62
2022/08/03 15:26:08;;;;;;;4.20;4.00;;;;;;;28.99;36.25;99622.71;430063;1274;144673;-66
2022/08/03 15:36:34;;;;;;;4.40;4.10;;;;;;;28.78;36.78;99618.31;431431;1274;141851;-66
2022/08/03 15:46:40;;;;;;;6.60;5.20;;;;;;;28.64;36.57;99612.45;430064;1274;142330;-65
2022/08/03 15:56:46;;;;;;;5.20;4.80;;;;;;;28.45;35.96;99610.56;432074;1274;147974;-64
2022/08/03 16:06:52;;;;;;;6.20;3.90;;;;;;;28.17;36.79;99608.43;433172;1274;142369;-64
2022/08/03 16:16:57;;;;;;;7.80;4.80;;;;;;;28.00;36.69;99600.15;430299;1274;141676;-63
2022/08/03 16:27:03;;;;;;;4.70;3.70;;;;;;;27.87;37.24;99594.59;431425;1274;141635;-63
2022/08/03 16:37:12;;;;;;;4.40;3.80;;;;;;;27.66;37.52;99587.37;433389;1274;187961;-65
2022/08/03 16:47:39;;;;;;;4.70;4.30;;;;;;;27.51;37.48;99590.45;432045;1276;141849;-65
2022/08/03 16:57:45;;;;;;;8.20;4.50;;;;;;;27.33;37.97;99584.91;433137;1274;153881;-65
2022/08/03 17:08:05;;;;;;;6.10;4.70;;;;;;;27.40;38.95;99599.14;438626;1274;145123;-65
2022/08/03 17:18:18;;;;;;;4.30;4.00;;;;;;;27.55;38.92;99600.83;431933;1274;141786;-64
2022/08/03 17:28:33;;;;;;;5.10;4.00;;;;;;;27.48;39.28;99602.73;431330;1274;142634;-65
2022/08/03 17:38:56;;;;;;;4.60;4.10;;;;;;;27.38;39.19;99610.24;431705;1274;143868;-64
2022/08/03 17:49:02;;;;;;;5.10;4.60;;;;;;;26.80;39.82;99620.35;431482;1274;142666;-64
2022/08/03 17:59:34;;;;;;;10.60;5.70;;;;;;;26.19;42.01;99628.36;429525;1274;140793;-65
2022/08/03 18:10:01;;;;;;;12.20;6.60;;;;;;;25.55;43.99;99639.61;431247;1276;142336;-64
2022/08/03 18:20:17;;;;;;;13.00;6.30;;;;;;;24.89;45.96;99645.25;430919;1274;142879;-64
2022/08/03 18:30:44;;;;;;;33.00;11.10;;;;;;;24.22;47.73;99654.58;431471;1276;141148;-64
2022/08/03 18:40:59;;;;;;;14.30;7.80;;;;;;;23.60;49.48;99664.00;431353;1274;147561;-65
2022/08/03 18:51:10;;;;;;;16.90;9.50;;;;;;;23.03;51.76;99678.00;430934;1276;142194;-65
2022/08/03 19:01:38;;;;;;;10.30;8.70;;;;;;;22.50;54.06;99688.05;430106;1273;144013;-67
2022/08/03 19:12:11;;;;;;;20.60;11.20;;;;;;;22.05;55.71;99694.44;431702;1274;142299;-65
2022/08/03 19:22:38;;;;;;;10.70;9.70;;;;;;;21.64;56.88;99692.78;431485;1274;142193;-67
2022/08/03 19:32:51;;;;;;;14.00;9.00;;;;;;;21.34;58.26;99696.58;429626;1276;197327;-64
2022/08/03 19:43:01;;;;;;;12.80;9.60;;;;;;;21.04;59.31;99695.77;431479;1274;142737;-63
2022/08/03 19:53:10;;;;;;;16.30;10.70;;;;;;;20.74;60.16;99694.84;430063;1274;142447;-65
2022/08/03 20:03:17;;;;;;;12.10;11.00;;;;;;;20.47;61.11;99697.32;429717;1274;144154;-65
2022/08/03 20:13:30;;;;;;;14.50;10.90;;;;;;;20.23;61.71;99701.05;430159;1274;145756;-64
2022/08/03 20:23:44;;;;;;;17.00;12.60;;;;;;;20.10;60.86;99702.84;429960;1272;153231;-66
2022/08/03 20:34:08;;;;;;;13.10;11.40;;;;;;;20.08;61.32;99698.65;430340;1274;141994;-63
2022/08/03 20:44:14;;;;;;;11.90;10.80;;;;;;;19.88;62.02;99696.11;430020;1274;143051;-61
2022/08/03 20:54:22;;;;;;;12.60;11.40;;;;;;;19.83;61.61;99700.88;429360;1274;145706;-63
2022/08/03 21:04:36;;;;;;;12.70;10.80;;;;;;;19.92;61.49;99705.89;431551;1274;146530;-65
2022/08/03 21:14:56;;;;;;;12.80;11.50;;;;;;;19.94;61.58;99709.21;430302;1274;199316;-64
2022/08/03 21:25:06;;;;;;;11.70;10.30;;;;;;;19.91;62.12;99708.48;430813;1274;143290;-64
2022/08/03 21:35:12;;;;;;;13.60;10.80;;;;;;;19.90;62.26;99706.27;430237;1274;143713;-65
2022/08/03 21:45:18;;;;;;;10.70;9.70;;;;;;;19.79;62.93;99710.94;431809;1274;141245;-65
2022/08/03 21:55:28;;;;;;;15.40;10.60;;;;;;;19.65;63.24;99715.65;431560;1274;144227;-64
2022/08/03 22:05:34;;;;;;;12.10;11.00;;;;;;;19.43;64.19;99713.77;430368;1274;146785;-68
2022/08/03 22:15:49;;;;;;;17.10;11.10;;;;;;;19.18;65.04;99715.49;432597;1274;147438;-65
2022/08/03 22:25:58;;;;;;;11.60;10.70;;;;;;;19.06;65.54;99717.55;438009;1274;143398;-63
2022/08/03 22:36:06;;;;;;;12.40;11.20;;;;;;;18.95;65.75;99718.59;446970;1274;143208;-65
2022/08/03 22:46:11;;;;;;;;;;;;;;;18.90;66.52;99714.13;445819;1271;143583;-63
2022/08/03 22:56:23;;;;;;;11.60;10.30;;;;;;;19.02;66.72;99710.33;446464;1273;128521;-65
2022/08/03 23:06:34;;;;;;;13.10;11.80;;;;;;;19.08;66.90;99710.44;445568;1274;143440;-64
2022/08/03 23:16:42;;;;;;;13.10;11.60;;;;;;;19.12;67.24;99706.74;446326;1274;143730;-64
2022/08/03 23:26:50;;;;;;;12.60;11.40;;;;;;;19.06;67.49;99703.73;446868;1273;240035;-65
2022/08/03 23:36:54;;;;;;;;;;;;;;;18.94;68.09;99700.38;446495;1274;144107;-65
2022/08/03 23:47:00;;;;;;;12.20;11.20;;;;;;;18.85;68.20;99702.89;445544;1274;130632;-65
2022/08/03 23:57:18;;;;;;;12.20;11.20;;;;;;;18.69;68.64;99706.73;443620;1272;142752;-65
